»·PEaware :: TPX823 KLAS-KSBA

TPX823 :: KLAS-KSBA

FLIGHT INFORMATION

Flight Status: Arrived
Operator: ATP Experience
More flights by this operator :: More flights under this callsign
Pilot: Dave P. (45)
Aircraft: BOEING 737-600
(B736)
More flights by this aircraft type
Origin: KLAS McCarran Intl
United States
Destination: KSBA Santa Barbara Mun
United States
More flights between these airports :: More routes between these airports
Route: +BOACH8 HEC PITBL1
File this flight plan on PilotEdge
Remarks: PBN / A1B1C1D1S1S2 DOF / 180722 REG / N736PM OPR / TPX PER / C RMK / TCAS SIMBRIEF
Altitude:
(Current/Filed)
34,000ft
Speed:
(Current/Filed)
466kts
Departed: 21-Jul-18 05:49 PM
Arrived: 21-Jul-18 06:37 PM
Distance/Time
Traveled:
250nm/0:48
Distance/Time
To Go:
Arrived

Flight Plot

Page will automatically refresh every two minutes.

Flight plan parsing failed; only flown route is shown


Map Options




Map Legend


Flown Route
Filed Route
Departure Airport
Arrival Airport
Navaid (VOR, NDB)
Fix

Horizontal Profiles

Position Reports

Time Latitude Longitude Heading Altitude Ground
Speed
21-Jul-18 17:37 36.081132 -115.138028 322 2188ft 0kts
21-Jul-18 17:38 36.081132 -115.138028 322 2188ft 0kts
21-Jul-18 17:39 36.081132 -115.138028 322 2188ft 0kts
21-Jul-18 17:40 36.081132 -115.138028 322 2188ft 0kts
21-Jul-18 17:41 36.080802 -115.137721 322 2188ft 2kts
21-Jul-18 17:42 36.080569 -115.137504 322 2188ft 0kts
21-Jul-18 17:43 36.080570 -115.137504 322 2188ft 0kts
21-Jul-18 17:44 36.079022 -115.135967 132 2188ft 4kts
21-Jul-18 17:45 36.078247 -115.134859 99 2188ft 8kts
21-Jul-18 17:46 36.078240 -115.129061 89 2188ft 22kts
21-Jul-18 17:47 36.077942 -115.122628 117 2188ft 14kts
21-Jul-18 17:48 36.076693 -115.121301 180 2188ft 11kts
21-Jul-18 17:49 36.076347 -115.121739 270 2188ft 0kts
21-Jul-18 17:50 36.076454 -115.148089 272 2330ft 156kts
21-Jul-18 17:51 36.076765 -115.204485 268 4268ft 184kts
21-Jul-18 17:52 36.051884 -115.268128 200 5682ft 259kts
21-Jul-18 17:53 35.978837 -115.297682 196 7011ft 282kts
21-Jul-18 17:54 35.900265 -115.310231 184 9710ft 290kts
21-Jul-18 17:55 35.813972 -115.311064 172 11862ft 345kts
21-Jul-18 17:56 35.714710 -115.299332 178 14736ft 368kts
21-Jul-18 17:57 35.626949 -115.363303 225 17660ft 389kts
21-Jul-18 17:58 35.552486 -115.463845 226 20319ft 404kts
21-Jul-18 17:59 35.475253 -115.567259 226 22621ft 418kts
21-Jul-18 18:00 35.395339 -115.673733 225 24604ft 431kts
21-Jul-18 18:01 35.312862 -115.783262 225 26372ft 442kts
21-Jul-18 18:02 35.228804 -115.895049 225 27925ft 451kts
21-Jul-18 18:03 35.142644 -116.009260 224 29299ft 460kts
21-Jul-18 18:04 35.055534 -116.124181 223 30901ft 459kts
21-Jul-18 18:05 34.969300 -116.237849 223 32729ft 454kts
21-Jul-18 18:06 34.883422 -116.350240 222 34016ft 453kts
21-Jul-18 18:07 34.803892 -116.468228 239 34044ft 461kts
21-Jul-18 18:08 34.772989 -116.621781 254 34035ft 471kts
21-Jul-18 18:09 34.749644 -116.779149 254 34011ft 471kts
21-Jul-18 18:10 34.726262 -116.935774 254 34027ft 472kts
21-Jul-18 18:11 34.702728 -117.092875 254 34067ft 471kts
21-Jul-18 18:12 34.678894 -117.249320 254 34086ft 471kts
21-Jul-18 18:13 34.654719 -117.405832 253 34075ft 472kts
21-Jul-18 18:14 34.630154 -117.562703 253 34067ft 472kts
21-Jul-18 18:15 34.605561 -117.718583 254 31468ft 471kts
21-Jul-18 18:16 34.581521 -117.873953 255 28299ft 461kts
21-Jul-18 18:17 34.557452 -118.024298 256 25581ft 443kts
21-Jul-18 18:18 34.534557 -118.167113 257 24271ft 427kts
21-Jul-18 18:19 34.512457 -118.303020 256 22919ft 399kts
21-Jul-18 18:20 34.491330 -118.433271 257 20610ft 387kts
21-Jul-18 18:21 34.470873 -118.559012 257 18390ft 374kts
21-Jul-18 18:22 34.450628 -118.680976 256 16185ft 362kts
21-Jul-18 18:23 34.430993 -118.798633 256 14030ft 352kts
21-Jul-18 18:24 34.411970 -118.910265 256 12313ft 331kts
21-Jul-18 18:25 34.393371 -119.017900 256 10229ft 323kts
21-Jul-18 18:26 34.375436 -119.122909 257 9042ft 309kts
21-Jul-18 18:27 34.359649 -119.218094 257 7701ft 279kts
21-Jul-18 18:28 34.344287 -119.308771 257 6125ft 271kts
21-Jul-18 18:29 34.329032 -119.398000 257 6017ft 268kts
21-Jul-18 18:30 34.314357 -119.483549 257 5032ft 253kts
21-Jul-18 18:31 34.325747 -119.559224 292 4141ft 228kts
21-Jul-18 18:32 34.367762 -119.608525 332 3643ft 200kts
21-Jul-18 18:33 34.412681 -119.637955 307 2597ft 175kts
21-Jul-18 18:34 34.424913 -119.692423 280 2055ft 159kts
21-Jul-18 18:35 34.431169 -119.742924 268 1487ft 150kts
21-Jul-18 18:36 34.429563 -119.790283 266 789ft 130kts
21-Jul-18 18:37 34.427980 -119.832373 267 50ft 121kts
21-Jul-18 18:38 34.427080 -119.846808 175 18ft 0kts
21-Jul-18 18:39 34.427078 -119.846808 175 18ft 0kts
21-Jul-18 18:40 34.426680 -119.844892 88 18ft 20kts
21-Jul-18 18:41 34.426792 -119.838976 88 18ft 17kts
21-Jul-18 18:42 34.426210 -119.836934 178 18ft 2kts
21-Jul-18 18:43 34.426203 -119.836933 178 18ft 0kts
21-Jul-18 18:44 34.426203 -119.836933 178 18ft 0kts
21-Jul-18 18:45 34.426203 -119.836933 178 18ft 0kts

Navigation Log

Ident Type
Flight plan parsing failed, navigation log unavailable